createdAt,value
2019-05-26T00:01:26.762Z,14.30
2019-05-26T00:03:56.954Z,13.97
2019-05-26T00:06:27.134Z,14.15
2019-05-26T00:08:57.465Z,14.04
2019-05-26T00:11:27.574Z,14.28
2019-05-26T00:13:58.581Z,14.11
2019-05-26T00:16:28.122Z,14.12
2019-05-26T00:18:58.446Z,13.91
2019-05-26T00:21:28.517Z,13.71
2019-05-26T00:23:58.906Z,13.67
2019-05-26T00:26:29.469Z,13.85
2019-05-26T00:28:59.915Z,14.29
2019-05-26T00:31:29.669Z,13.92
2019-05-26T00:34:00.048Z,13.76
2019-05-26T00:36:30.131Z,13.68
2019-05-26T00:39:01.140Z,13.93
2019-05-26T00:41:32.156Z,13.61
2019-05-26T00:44:01.545Z,13.68
2019-05-26T00:46:31.244Z,13.76
2019-05-26T00:49:01.481Z,13.76
2019-05-26T00:51:31.817Z,13.58
2019-05-26T00:54:02.221Z,13.50
2019-05-26T00:56:32.463Z,13.37
2019-05-26T00:59:02.660Z,13.31
2019-05-26T01:01:32.796Z,12.95
2019-05-26T01:04:03.212Z,12.87
2019-05-26T01:06:33.449Z,13.23
2019-05-26T01:09:05.972Z,13.29
2019-05-26T01:11:35.444Z,13.33
2019-05-26T01:14:05.755Z,13.39
2019-05-26T01:16:35.505Z,13.09
2019-05-26T01:19:05.915Z,12.87
2019-05-26T01:21:36.065Z,12.78
2019-05-26T01:24:05.510Z,12.94
2019-05-26T01:26:35.479Z,12.89
2019-05-26T01:29:05.845Z,13.00
2019-05-26T01:31:36.112Z,12.96
2019-05-26T01:34:08.333Z,12.92
2019-05-26T01:36:38.000Z,12.55
2019-05-26T01:39:08.710Z,13.25
2019-05-26T01:41:38.113Z,12.32
2019-05-26T01:44:07.566Z,12.56
2019-05-26T01:46:37.481Z,12.39
2019-05-26T01:49:07.823Z,12.40
2019-05-26T01:51:37.978Z,12.43
2019-05-26T01:54:08.247Z,12.54
2019-05-26T01:56:38.722Z,12.32
2019-05-26T01:59:08.809Z,12.28
2019-05-26T02:01:39.001Z,12.15
2019-05-26T02:04:09.653Z,12.43
2019-05-26T02:06:39.614Z,12.32
2019-05-26T02:09:10.055Z,12.25
2019-05-26T02:11:40.078Z,11.84
2019-05-26T02:14:14.223Z,12.05
2019-05-26T02:16:41.551Z,12.25
2019-05-26T02:19:10.977Z,12.14
2019-05-26T02:21:41.180Z,12.18
2019-05-26T02:24:11.432Z,12.28
2019-05-26T02:26:41.636Z,12.20
2019-05-26T02:29:11.908Z,12.23
2019-05-26T02:31:42.051Z,12.36
2019-05-26T02:34:12.478Z,12.35
2019-05-26T02:36:42.576Z,12.08
2019-05-26T02:39:12.940Z,12.51
2019-05-26T02:41:43.091Z,12.37
2019-05-26T02:44:13.402Z,12.25
2019-05-26T02:46:43.576Z,12.32
2019-05-26T02:49:13.832Z,12.18
2019-05-26T02:51:44.140Z,12.22
2019-05-26T02:54:14.396Z,12.05
2019-05-26T02:56:44.612Z,11.98
2019-05-26T02:59:14.871Z,12.03
2019-05-26T03:02:02.423Z,11.78
2019-05-26T03:04:16.448Z,11.80
2019-05-26T03:06:46.860Z,12.05
2019-05-26T03:09:23.238Z,12.01
2019-05-26T03:11:52.725Z,12.08
2019-05-26T03:14:24.084Z,11.99
2019-05-26T03:16:55.982Z,12.44
2019-05-26T03:19:27.007Z,13.19
2019-05-26T03:21:59.145Z,12.93
2019-05-26T03:24:29.467Z,12.96
2019-05-26T03:26:59.212Z,12.16
2019-05-26T03:29:29.566Z,12.25
2019-05-26T03:31:59.051Z,12.08
2019-05-26T03:34:28.428Z,11.85
2019-05-26T03:36:57.805Z,11.89
2019-05-26T03:39:43.774Z,11.98
2019-05-26T03:41:58.271Z,12.33
2019-05-26T03:44:27.725Z,12.00
2019-05-26T03:46:57.105Z,11.84
2019-05-26T03:49:26.522Z,11.89
2019-05-26T03:51:55.889Z,11.61
2019-05-26T03:54:25.356Z,11.74
2019-05-26T03:56:54.744Z,12.44
2019-05-26T03:59:25.114Z,12.44
2019-05-26T04:01:57.621Z,12.10
2019-05-26T04:04:25.617Z,12.03
2019-05-26T04:06:54.993Z,12.28
2019-05-26T04:09:24.383Z,12.41
2019-05-26T04:11:53.758Z,12.45
2019-05-26T04:14:23.146Z,12.50
2019-05-26T04:16:56.115Z,13.62
2019-05-26T04:19:23.749Z,13.46
2019-05-26T04:21:53.357Z,13.28
2019-05-26T04:24:23.701Z,13.48
2019-05-26T04:26:53.666Z,13.37
2019-05-26T04:29:23.981Z,13.52
2019-05-26T04:31:54.211Z,13.24
2019-05-26T04:34:24.652Z,13.19
2019-05-26T04:36:54.776Z,13.71
2019-05-26T04:39:25.070Z,14.02
2019-05-26T04:41:55.300Z,14.22
2019-05-26T04:44:25.694Z,14.02
2019-05-26T04:46:55.849Z,14.22
2019-05-26T04:49:26.610Z,14.03
2019-05-26T04:51:56.395Z,14.20
2019-05-26T04:54:26.602Z,14.51
2019-05-26T04:56:56.840Z,14.66
2019-05-26T04:59:27.109Z,14.14
2019-05-26T05:01:57.471Z,14.39
2019-05-26T05:04:27.650Z,14.79
2019-05-26T05:06:58.116Z,14.79
2019-05-26T05:09:28.124Z,14.77
2019-05-26T05:11:58.382Z,14.49
2019-05-26T05:14:28.696Z,14.78
2019-05-26T05:16:58.828Z,14.68
2019-05-26T05:19:29.154Z,14.84
2019-05-26T05:21:59.376Z,14.95
2019-05-26T05:24:29.716Z,15.20
2019-05-26T05:27:00.026Z,15.11
2019-05-26T05:29:30.432Z,15.51
2019-05-26T05:32:00.477Z,15.72
2019-05-26T05:34:30.821Z,15.95
2019-05-26T05:37:01.004Z,16.00
2019-05-26T05:39:31.374Z,16.58
2019-05-26T05:42:01.598Z,16.63
2019-05-26T05:44:31.669Z,16.82
2019-05-26T05:47:01.926Z,16.50
2019-05-26T05:49:32.141Z,17.13
2019-05-26T05:52:02.494Z,17.15
2019-05-26T05:54:32.835Z,16.48
2019-05-26T05:57:02.953Z,18.37
2019-05-26T05:59:33.290Z,16.51
2019-05-26T06:02:03.372Z,16.31
2019-05-26T06:04:33.607Z,16.45
2019-05-26T06:07:03.943Z,17.12
2019-05-26T06:09:34.123Z,16.96
2019-05-26T06:12:04.519Z,17.59
2019-05-26T06:14:34.744Z,17.66
2019-05-26T06:17:05.222Z,17.10
2019-05-26T06:19:35.144Z,17.73
2019-05-26T06:22:05.796Z,17.79
2019-05-26T06:24:35.657Z,18.05
2019-05-26T06:27:05.997Z,19.55
2019-05-26T06:29:36.410Z,18.75
2019-05-26T06:32:06.882Z,19.75
2019-05-26T06:34:36.645Z,19.08
2019-05-26T06:37:06.780Z,18.75
2019-05-26T06:39:37.094Z,19.05
2019-05-26T06:42:07.263Z,19.57
2019-05-26T06:44:52.422Z,20.34
2019-05-26T06:47:09.139Z,20.64
2019-05-26T06:49:39.316Z,19.61
2019-05-26T06:52:09.357Z,19.95
2019-05-26T06:54:38.745Z,20.28
2019-05-26T06:57:08.653Z,21.38
2019-05-26T06:59:39.004Z,20.89
2019-05-26T07:02:09.101Z,20.39
2019-05-26T07:04:39.561Z,21.57
2019-05-26T07:07:09.449Z,21.78
2019-05-26T07:09:39.622Z,22.32
2019-05-26T07:12:09.613Z,23.43
2019-05-26T07:14:39.656Z,22.42
2019-05-26T07:17:09.635Z,22.61
2019-05-26T07:19:40.780Z,23.63
2019-05-26T07:22:10.168Z,23.89
2019-05-26T07:24:39.734Z,23.36
2019-05-26T07:27:09.709Z,22.65
2019-05-26T07:29:39.840Z,22.88
2019-05-26T07:32:11.243Z,22.94
2019-05-26T07:34:41.042Z,22.89
2019-05-26T07:37:10.623Z,22.92
2019-05-26T07:39:40.416Z,23.32
2019-05-26T07:42:11.256Z,24.82
2019-05-26T07:44:40.790Z,25.12
2019-05-26T07:47:10.181Z,24.68
2019-05-26T07:49:40.146Z,24.11
2019-05-26T07:52:10.109Z,25.00
2019-05-26T07:54:40.168Z,24.29
2019-05-26T07:57:10.158Z,24.61
2019-05-26T07:59:40.270Z,25.16
2019-05-26T08:02:10.364Z,25.47
2019-05-26T08:04:40.372Z,24.94
2019-05-26T08:07:10.318Z,25.17
2019-05-26T08:09:40.495Z,24.92
2019-05-26T08:12:24.912Z,25.01
2019-05-26T08:14:41.537Z,25.65
2019-05-26T08:17:11.049Z,25.69
2019-05-26T08:19:40.781Z,26.45
2019-05-26T08:22:10.740Z,25.61
2019-05-26T08:24:40.705Z,26.26
2019-05-26T08:27:11.085Z,26.45
2019-05-26T08:29:40.875Z,27.06
2019-05-26T08:32:10.828Z,27.09
2019-05-26T08:34:40.981Z,25.46
2019-05-26T08:37:10.939Z,28.21
2019-05-26T08:39:41.003Z,27.45
2019-05-26T08:42:26.038Z,26.90
2019-05-26T08:44:42.058Z,27.31
2019-05-26T08:47:11.441Z,26.53
2019-05-26T08:49:41.180Z,27.64
2019-05-26T08:52:11.087Z,25.72
2019-05-26T08:54:41.225Z,28.76
2019-05-26T08:57:11.133Z,28.35
2019-05-26T08:59:41.274Z,27.04
2019-05-26T09:02:11.328Z,28.00
2019-05-26T09:04:41.402Z,27.72
2019-05-26T09:07:11.369Z,27.25
2019-05-26T09:09:41.394Z,27.50
2019-05-26T09:12:11.361Z,27.50
2019-05-26T09:14:41.433Z,27.62
2019-05-26T09:17:11.388Z,29.28
2019-05-26T09:19:41.615Z,29.36
2019-05-26T09:22:11.492Z,29.74
2019-05-26T09:24:41.768Z,28.69
2019-05-26T09:27:11.615Z,28.81
2019-05-26T09:29:41.904Z,28.04
2019-05-26T09:32:12.256Z,28.96
2019-05-26T09:34:41.716Z,29.73
2019-05-26T09:37:11.667Z,28.92
2019-05-26T09:39:41.937Z,30.18
2019-05-26T09:42:11.820Z,27.69
2019-05-26T09:44:41.825Z,27.40
2019-05-26T09:47:11.865Z,28.90
2019-05-26T09:49:42.028Z,27.84
2019-05-26T09:52:11.983Z,26.22
2019-05-26T09:54:41.968Z,27.16
2019-05-26T09:57:11.915Z,27.22
2019-05-26T09:59:42.084Z,27.30
2019-05-26T10:02:12.012Z,28.12
2019-05-26T10:04:42.152Z,27.33
2019-05-26T10:07:15.851Z,26.88
2019-05-26T10:09:42.476Z,25.73
2019-05-26T10:12:12.313Z,26.98
2019-05-26T10:14:42.284Z,26.59
2019-05-26T10:17:12.284Z,26.71
2019-05-26T10:19:42.545Z,26.90
2019-05-26T10:22:12.440Z,26.60
2019-05-26T10:24:42.452Z,26.28
2019-05-26T10:27:12.440Z,27.67
2019-05-26T10:29:42.600Z,28.17
2019-05-26T10:32:12.662Z,27.14
2019-05-26T10:34:42.640Z,27.09
2019-05-26T10:37:12.602Z,27.09
2019-05-26T10:39:45.080Z,27.12
2019-05-26T10:42:14.935Z,27.49
2019-05-26T10:44:44.343Z,26.21
2019-05-26T10:47:13.719Z,26.62
2019-05-26T10:49:43.095Z,26.69
2019-05-26T10:52:13.048Z,27.73
2019-05-26T10:54:43.011Z,26.91
2019-05-26T10:57:12.977Z,28.14
2019-05-26T10:59:43.135Z,27.46
2019-05-26T11:02:13.234Z,28.31
2019-05-26T11:04:43.181Z,27.88
2019-05-26T11:07:13.164Z,26.78
2019-05-26T11:09:43.329Z,27.23
2019-05-26T11:12:13.276Z,27.97
2019-05-26T11:14:43.348Z,27.75
2019-05-26T11:17:13.333Z,28.08
2019-05-26T11:19:43.481Z,28.26
2019-05-26T11:22:13.510Z,27.93
2019-05-26T11:24:43.495Z,28.24
2019-05-26T11:27:14.515Z,29.46
2019-05-26T11:29:45.125Z,30.87
2019-05-26T11:32:14.503Z,29.06
2019-05-26T11:34:43.879Z,28.31
2019-05-26T11:37:13.625Z,28.90
2019-05-26T11:39:43.808Z,28.88
2019-05-26T11:42:14.384Z,29.23
2019-05-26T11:44:44.836Z,28.61
2019-05-26T11:47:14.219Z,28.18
2019-05-26T11:49:44.007Z,28.27
2019-05-26T11:52:13.937Z,28.27
2019-05-26T11:54:43.970Z,28.91
2019-05-26T11:57:13.401Z,27.33
2019-05-26T11:59:46.982Z,27.77
2019-05-26T12:02:14.473Z,29.09
2019-05-26T12:04:44.395Z,28.67
2019-05-26T12:07:14.337Z,27.95
2019-05-26T12:09:44.393Z,28.06
2019-05-26T12:12:14.420Z,27.77
2019-05-26T12:14:44.416Z,27.09
2019-05-26T12:17:14.445Z,27.56
2019-05-26T12:19:44.915Z,28.39
2019-05-26T12:22:15.360Z,28.40
2019-05-26T12:24:44.744Z,28.76
2019-05-26T12:27:14.773Z,28.97
2019-05-26T12:29:44.900Z,28.07
2019-05-26T12:32:14.856Z,28.65
2019-05-26T12:34:44.942Z,27.95
2019-05-26T12:37:14.903Z,28.06
2019-05-26T12:39:45.112Z,27.85
2019-05-26T12:42:16.994Z,29.22
2019-05-26T12:44:49.667Z,28.40
2019-05-26T12:47:17.179Z,28.58
2019-05-26T12:49:47.554Z,28.77
2019-05-26T12:52:17.008Z,29.82
2019-05-26T12:54:46.405Z,28.63
2019-05-26T12:57:15.926Z,28.86
2019-05-26T12:59:46.191Z,30.33
2019-05-26T13:02:16.549Z,28.58
2019-05-26T13:04:46.525Z,27.13
2019-05-26T13:07:18.006Z,26.73
2019-05-26T13:09:47.393Z,25.84
2019-05-26T13:12:16.788Z,25.98
2019-05-26T13:14:46.643Z,25.82
2019-05-26T13:17:16.971Z,25.97
2019-05-26T13:19:47.176Z,25.81
2019-05-26T13:22:17.690Z,25.36
2019-05-26T13:24:47.803Z,25.33
2019-05-26T13:27:18.173Z,25.50
2019-05-26T13:29:48.323Z,25.58
2019-05-26T13:32:18.733Z,25.71
2019-05-26T13:34:48.831Z,25.36
2019-05-26T13:37:19.279Z,25.23
2019-05-26T13:39:49.496Z,25.82
2019-05-26T13:42:19.748Z,25.64
2019-05-26T13:44:49.973Z,26.33
2019-05-26T13:47:26.104Z,27.60
2019-05-26T13:49:51.327Z,27.15
2019-05-26T13:52:20.890Z,26.80
2019-05-26T13:54:50.936Z,26.21
2019-05-26T13:57:21.280Z,26.93
2019-05-26T13:59:51.370Z,27.56
2019-05-26T14:02:21.751Z,28.31
2019-05-26T14:04:52.004Z,28.40
2019-05-26T14:07:22.241Z,27.64
2019-05-26T14:09:52.393Z,27.48
2019-05-26T14:12:22.965Z,28.71
2019-05-26T14:14:53.790Z,27.43
2019-05-26T14:17:24.191Z,26.75
2019-05-26T14:19:55.002Z,27.73
2019-05-26T14:22:24.388Z,26.84
2019-05-26T14:24:54.514Z,27.02
2019-05-26T14:27:24.909Z,26.56
2019-05-26T14:29:54.556Z,27.46
2019-05-26T14:32:24.900Z,26.40
2019-05-26T14:34:55.180Z,26.00
2019-05-26T14:37:25.477Z,26.21
2019-05-26T14:39:55.687Z,26.15
2019-05-26T14:42:26.008Z,25.89
2019-05-26T14:44:56.147Z,25.65
2019-05-26T14:47:26.443Z,25.59
2019-05-26T14:49:56.695Z,25.60
2019-05-26T14:52:26.881Z,25.66
2019-05-26T14:54:57.093Z,26.53
2019-05-26T14:57:30.820Z,25.49
2019-05-26T14:59:58.466Z,25.31
2019-05-26T15:02:27.888Z,25.07
2019-05-26T15:04:57.863Z,24.82
2019-05-26T15:07:28.297Z,24.83
2019-05-26T15:09:58.140Z,25.00
2019-05-26T15:12:28.874Z,24.88
2019-05-26T15:14:58.561Z,25.55
2019-05-26T15:17:28.557Z,24.87
2019-05-26T15:19:58.619Z,25.24
2019-05-26T15:22:28.870Z,25.01
2019-05-26T15:24:59.099Z,25.81
2019-05-26T15:27:29.287Z,25.94
2019-05-26T15:29:59.524Z,25.95
2019-05-26T15:32:29.872Z,25.34
2019-05-26T15:34:59.280Z,25.67
2019-05-26T15:37:28.736Z,25.23
2019-05-26T15:39:58.162Z,25.71
2019-05-26T15:42:27.495Z,25.54
2019-05-26T15:44:56.880Z,25.41
2019-05-26T15:47:26.262Z,25.41
2019-05-26T15:49:55.738Z,25.05
2019-05-26T15:52:25.113Z,25.54
2019-05-26T15:54:54.500Z,25.63
2019-05-26T15:57:23.942Z,25.92
2019-05-26T15:59:54.654Z,26.10
2019-05-26T16:02:24.209Z,25.70
2019-05-26T16:04:53.604Z,25.65
2019-05-26T16:07:22.976Z,25.46
2019-05-26T16:09:52.353Z,25.88
2019-05-26T16:12:21.935Z,25.32
2019-05-26T16:14:51.322Z,25.29
2019-05-26T16:17:20.703Z,24.82
2019-05-26T16:19:50.104Z,24.12
2019-05-26T16:22:19.490Z,24.03
2019-05-26T16:24:48.882Z,24.24
2019-05-26T16:27:19.707Z,23.90
2019-05-26T16:29:49.289Z,24.26
2019-05-26T16:32:19.138Z,24.50
2019-05-26T16:34:48.549Z,23.36
2019-05-26T16:37:18.472Z,23.95
2019-05-26T16:39:48.604Z,24.29
2019-05-26T16:42:18.654Z,24.04
2019-05-26T16:44:48.657Z,24.14
2019-05-26T16:47:18.675Z,24.11
2019-05-26T16:49:48.783Z,23.46
2019-05-26T16:52:18.829Z,23.46
2019-05-26T16:54:48.803Z,23.71
2019-05-26T16:57:18.811Z,23.51
2019-05-26T16:59:48.936Z,23.21
2019-05-26T17:02:18.922Z,23.35
2019-05-26T17:04:48.934Z,23.21
2019-05-26T17:07:18.925Z,23.10
2019-05-26T17:09:49.105Z,23.05
2019-05-26T17:12:19.025Z,22.89
2019-05-26T17:14:49.081Z,22.84
2019-05-26T17:17:19.046Z,22.78
2019-05-26T17:19:52.583Z,22.75
2019-05-26T17:22:20.401Z,22.72
2019-05-26T17:24:50.753Z,22.64
2019-05-26T17:27:20.135Z,22.46
2019-05-26T17:29:49.555Z,22.52
2019-05-26T17:32:19.419Z,22.47
2019-05-26T17:34:49.420Z,22.58
2019-05-26T17:37:19.284Z,22.55
2019-05-26T17:39:49.551Z,22.30
2019-05-26T17:42:18.924Z,22.29
2019-05-26T17:44:48.313Z,21.84
2019-05-26T17:47:29.731Z,22.13
2019-05-26T17:49:49.584Z,22.08
2019-05-26T17:52:19.605Z,22.35
2019-05-26T17:54:49.595Z,22.23
2019-05-26T17:57:19.612Z,22.24
2019-05-26T17:59:49.737Z,22.14
2019-05-26T18:02:19.760Z,22.01
2019-05-26T18:09:46.173Z,21.69
2019-05-26T18:12:15.552Z,21.75
2019-05-26T18:14:44.942Z,21.51
2019-05-26T18:17:14.321Z,21.44
2019-05-26T18:19:43.697Z,21.79
2019-05-26T18:22:13.247Z,21.20
2019-05-26T18:24:54.867Z,21.13
2019-05-26T18:27:14.526Z,21.11
2019-05-26T18:29:44.012Z,21.03
2019-05-26T18:32:13.942Z,21.01
2019-05-26T18:34:44.055Z,21.01
2019-05-26T18:37:14.214Z,20.43
2019-05-26T18:39:44.567Z,20.35
2019-05-26T18:42:14.660Z,20.65
2019-05-26T18:44:45.026Z,20.63
2019-05-26T18:47:15.080Z,20.50
2019-05-26T18:49:45.399Z,20.55
2019-05-26T18:52:15.598Z,20.47
2019-05-26T18:54:46.757Z,20.33
2019-05-26T18:57:16.146Z,20.21
2019-05-26T18:59:46.261Z,20.22
2019-05-26T19:02:16.495Z,20.14
2019-05-26T19:04:47.677Z,20.23
2019-05-26T19:07:17.061Z,20.11
2019-05-26T19:09:47.170Z,20.03
2019-05-26T19:12:17.523Z,20.03
2019-05-26T19:14:47.606Z,19.86
2019-05-26T19:17:17.815Z,19.74
2019-05-26T19:19:48.152Z,19.75
2019-05-26T19:22:18.276Z,19.50
2019-05-26T19:24:48.505Z,19.71
2019-05-26T19:27:19.021Z,19.80
2019-05-26T19:29:49.096Z,19.81
2019-05-26T19:32:19.087Z,19.55
2019-05-26T19:34:49.311Z,19.60
2019-05-26T19:37:19.382Z,19.45
2019-05-26T19:39:49.716Z,19.17
2019-05-26T19:42:19.888Z,18.97
2019-05-26T19:44:50.046Z,19.07
2019-05-26T19:47:21.427Z,19.06
2019-05-26T19:49:50.816Z,18.71
2019-05-26T19:52:20.683Z,18.61
2019-05-26T19:54:51.812Z,18.71
2019-05-26T19:57:21.441Z,18.92
2019-05-26T19:59:51.291Z,18.93
2019-05-26T20:02:21.422Z,18.90
2019-05-26T20:04:51.669Z,18.92
2019-05-26T20:07:21.697Z,19.01
2019-05-26T20:09:51.647Z,18.59
2019-05-26T20:12:21.746Z,18.48
2019-05-26T20:14:51.736Z,18.38
2019-05-26T20:17:21.727Z,18.51
2019-05-26T20:19:51.960Z,18.50
2019-05-26T20:22:24.440Z,18.58
2019-05-26T20:24:53.455Z,18.35
2019-05-26T20:27:23.631Z,18.35
2019-05-26T20:29:53.955Z,18.35
2019-05-26T20:32:23.969Z,18.35
2019-05-26T20:34:54.364Z,18.31
2019-05-26T20:37:24.397Z,18.32
2019-05-26T20:39:54.659Z,18.35
2019-05-26T20:42:24.826Z,18.25
2019-05-26T20:44:54.828Z,18.17
2019-05-26T20:47:24.886Z,18.21
2019-05-26T20:49:55.019Z,17.95
2019-05-26T20:52:25.126Z,17.81
2019-05-26T20:54:55.305Z,17.94
2019-05-26T20:57:25.417Z,17.96
2019-05-26T20:59:55.709Z,17.96
2019-05-26T21:02:26.076Z,18.03
2019-05-26T21:04:56.119Z,18.25
2019-05-26T21:07:26.521Z,18.11
2019-05-26T21:09:56.560Z,18.04
2019-05-26T21:12:26.723Z,18.12
2019-05-26T21:14:57.018Z,17.39
2019-05-26T21:17:27.181Z,17.54
2019-05-26T21:19:57.537Z,17.36
2019-05-26T21:22:27.613Z,17.54
2019-05-26T21:24:57.889Z,17.49
2019-05-26T21:27:28.038Z,17.42
2019-05-26T21:29:58.365Z,17.42
2019-05-26T21:32:31.194Z,17.57
2019-05-26T21:34:59.641Z,17.45
2019-05-26T21:37:29.020Z,17.27
2019-05-26T21:39:59.184Z,17.49
2019-05-26T21:42:29.437Z,17.53
2019-05-26T21:44:59.620Z,17.28
2019-05-26T21:47:29.848Z,17.44
2019-05-26T21:50:00.062Z,17.41
2019-05-26T21:52:30.382Z,17.25
2019-05-26T21:55:00.522Z,17.18
2019-05-26T21:57:30.639Z,17.39
2019-05-26T22:00:00.881Z,17.22
2019-05-26T22:02:31.076Z,17.26
2019-05-26T22:05:01.282Z,17.18
2019-05-26T22:07:31.738Z,17.16
2019-05-26T22:10:01.714Z,17.21
2019-05-26T22:12:31.951Z,16.93
2019-05-26T22:15:02.093Z,17.11
2019-05-26T22:17:32.296Z,17.11
2019-05-26T22:20:02.829Z,17.05
2019-05-26T22:22:32.686Z,16.94
2019-05-26T22:25:03.225Z,16.88
2019-05-26T22:27:33.084Z,17.01
2019-05-26T22:30:04.777Z,16.94
2019-05-26T22:32:34.231Z,16.91
2019-05-26T22:35:04.910Z,16.81
2019-05-26T22:37:34.312Z,16.73
2019-05-26T22:40:06.795Z,16.69
2019-05-26T22:42:36.388Z,16.56
2019-05-26T22:45:08.433Z,16.63
2019-05-26T22:47:37.992Z,16.71
2019-05-26T22:50:07.822Z,16.78
2019-05-26T22:52:37.217Z,16.74
2019-05-26T22:55:08.449Z,16.76
2019-05-26T22:57:37.826Z,16.54
2019-05-26T23:00:08.949Z,16.58
2019-05-26T23:02:39.477Z,16.53
2019-05-26T23:05:09.807Z,16.52
2019-05-26T23:07:39.205Z,16.36
2019-05-26T23:10:08.807Z,16.23
2019-05-26T23:12:38.270Z,16.12
2019-05-26T23:15:08.986Z,16.22
2019-05-26T23:17:38.794Z,15.95
2019-05-26T23:20:08.831Z,15.84
2019-05-26T23:22:38.212Z,16.17
2019-05-26T23:25:09.412Z,16.13
2019-05-26T23:27:38.794Z,16.29
2019-05-26T23:30:09.115Z,16.38
2019-05-26T23:32:38.751Z,16.36
2019-05-26T23:35:09.269Z,16.41
2019-05-26T23:37:39.233Z,16.32
2019-05-26T23:40:10.181Z,16.43
2019-05-26T23:42:39.657Z,16.23
2019-05-26T23:45:10.162Z,16.31
2019-05-26T23:47:40.096Z,16.15
2019-05-26T23:50:10.549Z,16.29
2019-05-26T23:52:40.458Z,16.42
2019-05-26T23:55:11.209Z,16.37
2019-05-26T23:57:40.642Z,16.15
